sensor_id;sensor_type;location;lat;lon;timestamp;P1;durP1;ratioP1;P2;durP2;ratioP2
75454;SDS011;64035;48.358;2.122;2023-03-01T00:00:51;6.22;;;2.45;;
75454;SDS011;64035;48.358;2.122;2023-03-01T00:01:54;6.78;;;2.20;;
75454;SDS011;64035;48.358;2.122;2023-03-01T00:02:58;5.55;;;2.25;;
75454;SDS011;64035;48.358;2.122;2023-03-01T00:04:00;7.07;;;2.30;;
75454;SDS011;64035;48.358;2.122;2023-03-01T00:05:03;7.10;;;2.38;;
75454;SDS011;64035;48.358;2.122;2023-03-01T00:06:07;7.78;;;2.20;;
75454;SDS011;64035;48.358;2.122;2023-03-01T00:07:10;6.60;;;2.38;;
75454;SDS011;64035;48.358;2.122;2023-03-01T00:08:13;6.25;;;2.17;;
75454;SDS011;64035;48.358;2.122;2023-03-01T00:09:16;7.07;;;2.35;;
75454;SDS011;64035;48.358;2.122;2023-03-01T00:10:19;7.03;;;1.92;;
75454;SDS011;64035;48.358;2.122;2023-03-01T00:11:23;7.03;;;2.53;;
75454;SDS011;64035;48.358;2.122;2023-03-01T00:12:29;5.97;;;2.10;;
75454;SDS011;64035;48.358;2.122;2023-03-01T00:13:34;7.68;;;2.65;;
75454;SDS011;64035;48.358;2.122;2023-03-01T00:15:40;5.53;;;2.00;;
75454;SDS011;64035;48.358;2.122;2023-03-01T00:16:44;6.38;;;2.60;;
75454;SDS011;64035;48.358;2.122;2023-03-01T00:17:48;6.65;;;2.28;;
75454;SDS011;64035;48.358;2.122;2023-03-01T00:18:51;5.82;;;2.33;;
75454;SDS011;64035;48.358;2.122;2023-03-01T00:19:56;6.75;;;2.30;;
75454;SDS011;64035;48.358;2.122;2023-03-01T00:20:58;6.93;;;2.17;;
75454;SDS011;64035;48.358;2.122;2023-03-01T00:22:02;8.13;;;2.28;;
75454;SDS011;64035;48.358;2.122;2023-03-01T00:23:05;7.05;;;2.50;;
75454;SDS011;64035;48.358;2.122;2023-03-01T00:24:07;6.78;;;2.80;;
75454;SDS011;64035;48.358;2.122;2023-03-01T00:25:11;8.40;;;2.70;;
75454;SDS011;64035;48.358;2.122;2023-03-01T00:26:14;5.65;;;2.13;;
75454;SDS011;64035;48.358;2.122;2023-03-01T00:27:18;6.97;;;2.30;;
75454;SDS011;64035;48.358;2.122;2023-03-01T00:28:21;5.82;;;2.05;;
75454;SDS011;64035;48.358;2.122;2023-03-01T00:29:25;7.70;;;2.60;;
75454;SDS011;64035;48.358;2.122;2023-03-01T00:30:28;7.10;;;2.35;;
75454;SDS011;64035;48.358;2.122;2023-03-01T00:31:32;8.52;;;2.60;;
75454;SDS011;64035;48.358;2.122;2023-03-01T00:32:35;6.32;;;2.50;;
75454;SDS011;64035;48.358;2.122;2023-03-01T00:33:39;7.53;;;2.50;;
75454;SDS011;64035;48.358;2.122;2023-03-01T00:34:42;6.20;;;2.35;;
75454;SDS011;64035;48.358;2.122;2023-03-01T00:35:45;7.68;;;2.65;;
75454;SDS011;64035;48.358;2.122;2023-03-01T00:36:47;7.20;;;2.50;;
75454;SDS011;64035;48.358;2.122;2023-03-01T00:37:51;7.03;;;2.15;;
75454;SDS011;64035;48.358;2.122;2023-03-01T00:39:00;6.70;;;2.30;;
75454;SDS011;64035;48.358;2.122;2023-03-01T00:40:04;7.53;;;2.35;;
75454;SDS011;64035;48.358;2.122;2023-03-01T00:41:10;6.00;;;2.17;;
75454;SDS011;64035;48.358;2.122;2023-03-01T00:42:16;6.60;;;2.55;;
75454;SDS011;64035;48.358;2.122;2023-03-01T00:43:19;8.15;;;2.35;;
75454;SDS011;64035;48.358;2.122;2023-03-01T00:44:22;8.00;;;2.60;;
75454;SDS011;64035;48.358;2.122;2023-03-01T00:45:26;6.40;;;2.08;;
75454;SDS011;64035;48.358;2.122;2023-03-01T00:46:30;6.72;;;2.25;;
75454;SDS011;64035;48.358;2.122;2023-03-01T00:47:33;7.05;;;2.60;;
75454;SDS011;64035;48.358;2.122;2023-03-01T00:48:36;6.38;;;2.25;;
75454;SDS011;64035;48.358;2.122;2023-03-01T00:49:40;6.45;;;2.25;;
75454;SDS011;64035;48.358;2.122;2023-03-01T00:50:43;8.18;;;2.58;;
75454;SDS011;64035;48.358;2.122;2023-03-01T00:51:46;8.38;;;2.50;;
75454;SDS011;64035;48.358;2.122;2023-03-01T00:52:52;6.82;;;2.30;;
75454;SDS011;64035;48.358;2.122;2023-03-01T00:53:57;6.40;;;2.08;;
75454;SDS011;64035;48.358;2.122;2023-03-01T00:55:03;4.97;;;2.08;;
75454;SDS011;64035;48.358;2.122;2023-03-01T00:56:07;7.18;;;2.40;;
75454;SDS011;64035;48.358;2.122;2023-03-01T00:57:12;7.82;;;2.45;;
75454;SDS011;64035;48.358;2.122;2023-03-01T00:58:15;6.82;;;2.58;;
75454;SDS011;64035;48.358;2.122;2023-03-01T00:59:18;6.57;;;2.40;;
75454;SDS011;64035;48.358;2.122;2023-03-01T01:00:21;7.40;;;2.40;;
75454;SDS011;64035;48.358;2.122;2023-03-01T01:01:26;6.32;;;2.30;;
75454;SDS011;64035;48.358;2.122;2023-03-01T01:02:34;7.30;;;2.38;;
75454;SDS011;64035;48.358;2.122;2023-03-01T01:03:38;8.38;;;2.25;;
75454;SDS011;64035;48.358;2.122;2023-03-01T01:04:40;6.93;;;2.38;;
75454;SDS011;64035;48.358;2.122;2023-03-01T01:05:43;6.88;;;2.50;;
75454;SDS011;64035;48.358;2.122;2023-03-01T01:06:46;5.20;;;2.00;;
75454;SDS011;64035;48.358;2.122;2023-03-01T01:07:49;7.15;;;2.42;;
75454;SDS011;64035;48.358;2.122;2023-03-01T01:08:53;7.55;;;2.67;;
75454;SDS011;64035;48.358;2.122;2023-03-01T01:09:57;5.60;;;2.08;;
75454;SDS011;64035;48.358;2.122;2023-03-01T01:11:00;7.30;;;2.63;;
75454;SDS011;64035;48.358;2.122;2023-03-01T01:12:04;8.60;;;2.53;;
75454;SDS011;64035;48.358;2.122;2023-03-01T01:13:08;7.65;;;2.60;;
75454;SDS011;64035;48.358;2.122;2023-03-01T01:14:11;5.47;;;2.10;;
75454;SDS011;64035;48.358;2.122;2023-03-01T01:15:15;7.28;;;2.65;;
75454;SDS011;64035;48.358;2.122;2023-03-01T01:16:20;9.65;;;3.00;;
75454;SDS011;64035;48.358;2.122;2023-03-01T01:17:25;7.65;;;2.10;;
75454;SDS011;64035;48.358;2.122;2023-03-01T01:18:28;6.03;;;2.25;;
75454;SDS011;64035;48.358;2.122;2023-03-01T01:19:30;6.43;;;2.38;;
75454;SDS011;64035;48.358;2.122;2023-03-01T01:20:35;6.05;;;2.20;;
75454;SDS011;64035;48.358;2.122;2023-03-01T01:21:38;6.60;;;2.25;;
75454;SDS011;64035;48.358;2.122;2023-03-01T01:22:41;7.57;;;2.63;;
75454;SDS011;64035;48.358;2.122;2023-03-01T01:23:45;7.13;;;2.28;;
75454;SDS011;64035;48.358;2.122;2023-03-01T01:25:51;7.68;;;2.40;;
75454;SDS011;64035;48.358;2.122;2023-03-01T01:26:55;6.30;;;2.47;;
75454;SDS011;64035;48.358;2.122;2023-03-01T01:27:58;7.28;;;2.28;;
75454;SDS011;64035;48.358;2.122;2023-03-01T01:29:01;5.93;;;2.20;;
75454;SDS011;64035;48.358;2.122;2023-03-01T01:30:06;7.20;;;2.35;;
75454;SDS011;64035;48.358;2.122;2023-03-01T01:31:10;7.20;;;2.42;;
75454;SDS011;64035;48.358;2.122;2023-03-01T01:32:13;7.32;;;2.58;;
75454;SDS011;64035;48.358;2.122;2023-03-01T01:33:17;6.75;;;2.40;;
75454;SDS011;64035;48.358;2.122;2023-03-01T01:34:20;6.20;;;2.38;;
75454;SDS011;64035;48.358;2.122;2023-03-01T01:35:24;7.47;;;2.40;;
75454;SDS011;64035;48.358;2.122;2023-03-01T01:36:27;6.82;;;2.42;;
75454;SDS011;64035;48.358;2.122;2023-03-01T01:37:31;7.03;;;2.42;;
75454;SDS011;64035;48.358;2.122;2023-03-01T01:38:34;6.93;;;2.50;;
75454;SDS011;64035;48.358;2.122;2023-03-01T01:39:38;7.47;;;2.47;;
75454;SDS011;64035;48.358;2.122;2023-03-01T01:40:44;7.07;;;2.38;;
75454;SDS011;64035;48.358;2.122;2023-03-01T01:41:48;4.68;;;1.90;;
75454;SDS011;64035;48.358;2.122;2023-03-01T01:42:52;6.55;;;2.30;;
75454;SDS011;64035;48.358;2.122;2023-03-01T01:44:15;6.63;;;2.50;;
75454;SDS011;64035;48.358;2.122;2023-03-01T01:46:36;7.80;;;2.50;;
75454;SDS011;64035;48.358;2.122;2023-03-01T01:47:43;6.05;;;2.20;;
75454;SDS011;64035;48.358;2.122;2023-03-01T01:48:47;8.07;;;2.35;;
75454;SDS011;64035;48.358;2.122;2023-03-01T01:49:55;7.20;;;2.30;;
75454;SDS011;64035;48.358;2.122;2023-03-01T01:50:59;8.00;;;2.50;;
75454;SDS011;64035;48.358;2.122;2023-03-01T01:52:05;8.20;;;2.33;;
75454;SDS011;64035;48.358;2.122;2023-03-01T01:53:14;5.32;;;2.35;;
75454;SDS011;64035;48.358;2.122;2023-03-01T01:54:23;6.93;;;2.25;;
75454;SDS011;64035;48.358;2.122;2023-03-01T01:55:30;8.73;;;2.75;;
75454;SDS011;64035;48.358;2.122;2023-03-01T01:56:33;6.90;;;2.35;;
75454;SDS011;64035;48.358;2.122;2023-03-01T01:57:43;7.78;;;2.60;;
75454;SDS011;64035;48.358;2.122;2023-03-01T01:58:48;7.80;;;2.55;;
75454;SDS011;64035;48.358;2.122;2023-03-01T01:59:53;7.20;;;2.25;;
75454;SDS011;64035;48.358;2.122;2023-03-01T02:01:00;8.48;;;2.58;;
75454;SDS011;64035;48.358;2.122;2023-03-01T02:02:04;6.72;;;2.40;;
75454;SDS011;64035;48.358;2.122;2023-03-01T02:04:14;8.27;;;2.25;;
75454;SDS011;64035;48.358;2.122;2023-03-01T02:05:20;6.35;;;2.20;;
75454;SDS011;64035;48.358;2.122;2023-03-01T02:06:31;7.95;;;2.40;;
75454;SDS011;64035;48.358;2.122;2023-03-01T02:07:39;7.47;;;2.53;;
75454;SDS011;64035;48.358;2.122;2023-03-01T02:08:44;9.40;;;2.60;;
75454;SDS011;64035;48.358;2.122;2023-03-01T02:09:49;6.13;;;2.03;;
75454;SDS011;64035;48.358;2.122;2023-03-01T02:10:55;7.18;;;2.35;;
75454;SDS011;64035;48.358;2.122;2023-03-01T02:11:59;6.80;;;2.28;;
75454;SDS011;64035;48.358;2.122;2023-03-01T02:13:03;6.97;;;2.40;;
75454;SDS011;64035;48.358;2.122;2023-03-01T02:14:06;7.35;;;2.65;;
75454;SDS011;64035;48.358;2.122;2023-03-01T02:15:10;7.22;;;2.42;;
75454;SDS011;64035;48.358;2.122;2023-03-01T02:16:14;7.50;;;2.60;;
75454;SDS011;64035;48.358;2.122;2023-03-01T02:17:17;8.23;;;2.70;;
75454;SDS011;64035;48.358;2.122;2023-03-01T02:18:23;8.07;;;2.53;;
75454;SDS011;64035;48.358;2.122;2023-03-01T02:23:34;7.18;;;2.30;;
75454;SDS011;64035;48.358;2.122;2023-03-01T02:27:08;8.63;;;3.00;;
75454;SDS011;64035;48.358;2.122;2023-03-01T02:29:18;6.97;;;2.35;;
75454;SDS011;64035;48.358;2.122;2023-03-01T02:30:22;8.15;;;2.35;;
75454;SDS011;64035;48.358;2.122;2023-03-01T02:31:27;7.90;;;2.67;;
75454;SDS011;64035;48.358;2.122;2023-03-01T02:32:47;7.55;;;2.92;;
75454;SDS011;64035;48.358;2.122;2023-03-01T02:33:52;8.15;;;2.75;;
75454;SDS011;64035;48.358;2.122;2023-03-01T02:37:09;10.52;;;2.50;;
75454;SDS011;64035;48.358;2.122;2023-03-01T02:38:23;7.80;;;2.78;;
75454;SDS011;64035;48.358;2.122;2023-03-01T02:40:44;7.28;;;2.25;;
75454;SDS011;64035;48.358;2.122;2023-03-01T02:41:49;8.27;;;2.50;;
75454;SDS011;64035;48.358;2.122;2023-03-01T02:42:56;8.15;;;2.42;;
75454;SDS011;64035;48.358;2.122;2023-03-01T02:44:02;8.73;;;2.50;;
75454;SDS011;64035;48.358;2.122;2023-03-01T02:45:07;8.02;;;2.75;;
75454;SDS011;64035;48.358;2.122;2023-03-01T02:46:17;6.93;;;2.47;;
75454;SDS011;64035;48.358;2.122;2023-03-01T02:47:22;6.80;;;2.38;;
75454;SDS011;64035;48.358;2.122;2023-03-01T02:48:25;7.68;;;3.10;;
75454;SDS011;64035;48.358;2.122;2023-03-01T02:49:30;6.68;;;2.40;;
75454;SDS011;64035;48.358;2.122;2023-03-01T02:50:46;7.15;;;2.95;;
75454;SDS011;64035;48.358;2.122;2023-03-01T02:52:27;8.82;;;2.80;;
75454;SDS011;64035;48.358;2.122;2023-03-01T02:56:07;6.50;;;2.60;;
75454;SDS011;64035;48.358;2.122;2023-03-01T02:57:16;8.07;;;2.45;;
75454;SDS011;64035;48.358;2.122;2023-03-01T02:58:20;8.10;;;2.42;;
75454;SDS011;64035;48.358;2.122;2023-03-01T02:59:24;7.15;;;2.40;;
75454;SDS011;64035;48.358;2.122;2023-03-01T03:00:33;7.30;;;2.45;;
75454;SDS011;64035;48.358;2.122;2023-03-01T03:01:42;8.95;;;2.63;;
75454;SDS011;64035;48.358;2.122;2023-03-01T03:02:46;7.68;;;2.90;;
75454;SDS011;64035;48.358;2.122;2023-03-01T03:03:59;6.10;;;2.10;;
75454;SDS011;64035;48.358;2.122;2023-03-01T03:05:04;6.88;;;2.50;;
75454;SDS011;64035;48.358;2.122;2023-03-01T03:06:15;7.47;;;2.33;;
75454;SDS011;64035;48.358;2.122;2023-03-01T03:07:18;7.90;;;2.90;;
75454;SDS011;64035;48.358;2.122;2023-03-01T03:08:21;8.52;;;2.65;;
75454;SDS011;64035;48.358;2.122;2023-03-01T03:09:27;6.68;;;2.53;;
75454;SDS011;64035;48.358;2.122;2023-03-01T03:10:34;7.53;;;2.50;;
75454;SDS011;64035;48.358;2.122;2023-03-01T03:11:40;6.60;;;2.50;;
75454;SDS011;64035;48.358;2.122;2023-03-01T03:12:44;9.40;;;2.60;;
75454;SDS011;64035;48.358;2.122;2023-03-01T03:13:47;7.25;;;2.50;;
75454;SDS011;64035;48.358;2.122;2023-03-01T03:14:51;7.75;;;2.40;;
75454;SDS011;64035;48.358;2.122;2023-03-01T03:15:55;7.30;;;2.50;;
75454;SDS011;64035;48.358;2.122;2023-03-01T03:16:58;8.68;;;2.40;;
75454;SDS011;64035;48.358;2.122;2023-03-01T03:18:02;7.72;;;2.50;;
75454;SDS011;64035;48.358;2.122;2023-03-01T03:19:08;8.57;;;2.80;;
75454;SDS011;64035;48.358;2.122;2023-03-01T03:21:21;7.18;;;2.47;;
75454;SDS011;64035;48.358;2.122;2023-03-01T03:22:24;6.65;;;2.67;;
75454;SDS011;64035;48.358;2.122;2023-03-01T03:23:27;9.48;;;2.83;;
75454;SDS011;64035;48.358;2.122;2023-03-01T03:24:32;6.35;;;2.30;;
75454;SDS011;64035;48.358;2.122;2023-03-01T03:25:40;8.60;;;2.70;;
75454;SDS011;64035;48.358;2.122;2023-03-01T03:26:44;8.05;;;3.03;;
75454;SDS011;64035;48.358;2.122;2023-03-01T03:27:47;7.78;;;2.60;;
75454;SDS011;64035;48.358;2.122;2023-03-01T03:28:51;7.63;;;2.78;;
75454;SDS011;64035;48.358;2.122;2023-03-01T03:29:54;7.82;;;2.35;;
75454;SDS011;64035;48.358;2.122;2023-03-01T03:30:57;8.00;;;2.55;;
75454;SDS011;64035;48.358;2.122;2023-03-01T03:32:00;6.63;;;2.20;;
75454;SDS011;64035;48.358;2.122;2023-03-01T03:33:03;8.45;;;2.70;;
75454;SDS011;64035;48.358;2.122;2023-03-01T03:34:07;7.25;;;2.72;;
75454;SDS011;64035;48.358;2.122;2023-03-01T03:35:10;7.85;;;2.65;;
75454;SDS011;64035;48.358;2.122;2023-03-01T03:36:16;8.27;;;2.75;;
75454;SDS011;64035;48.358;2.122;2023-03-01T03:37:24;7.60;;;2.50;;
75454;SDS011;64035;48.358;2.122;2023-03-01T03:38:46;10.45;;;2.80;;
75454;SDS011;64035;48.358;2.122;2023-03-01T03:39:49;9.52;;;2.60;;
75454;SDS011;64035;48.358;2.122;2023-03-01T03:41:01;7.82;;;2.53;;
75454;SDS011;64035;48.358;2.122;2023-03-01T03:42:07;7.60;;;2.38;;
75454;SDS011;64035;48.358;2.122;2023-03-01T03:43:11;7.70;;;2.53;;
75454;SDS011;64035;48.358;2.122;2023-03-01T03:44:16;7.65;;;2.60;;
75454;SDS011;64035;48.358;2.122;2023-03-01T03:45:19;6.75;;;2.33;;
75454;SDS011;64035;48.358;2.122;2023-03-01T03:46:22;7.22;;;2.45;;
75454;SDS011;64035;48.358;2.122;2023-03-01T03:47:25;9.70;;;2.90;;
75454;SDS011;64035;48.358;2.122;2023-03-01T03:48:28;8.27;;;2.60;;
75454;SDS011;64035;48.358;2.122;2023-03-01T03:49:31;9.50;;;2.83;;
75454;SDS011;64035;48.358;2.122;2023-03-01T03:50:34;6.28;;;2.28;;
75454;SDS011;64035;48.358;2.122;2023-03-01T03:51:37;9.52;;;3.17;;
75454;SDS011;64035;48.358;2.122;2023-03-01T03:52:40;7.38;;;2.60;;
75454;SDS011;64035;48.358;2.122;2023-03-01T03:53:43;6.47;;;2.40;;
75454;SDS011;64035;48.358;2.122;2023-03-01T03:55:50;9.50;;;2.65;;
75454;SDS011;64035;48.358;2.122;2023-03-01T03:56:53;7.25;;;2.67;;
75454;SDS011;64035;48.358;2.122;2023-03-01T03:57:57;8.02;;;2.97;;
75454;SDS011;64035;48.358;2.122;2023-03-01T03:59:04;7.75;;;2.88;;
75454;SDS011;64035;48.358;2.122;2023-03-01T04:00:09;9.13;;;2.67;;
75454;SDS011;64035;48.358;2.122;2023-03-01T04:01:18;9.82;;;3.20;;
75454;SDS011;64035;48.358;2.122;2023-03-01T04:02:21;9.40;;;3.22;;
75454;SDS011;64035;48.358;2.122;2023-03-01T04:03:25;7.63;;;2.95;;
75454;SDS011;64035;48.358;2.122;2023-03-01T04:04:29;8.93;;;2.70;;
75454;SDS011;64035;48.358;2.122;2023-03-01T04:05:32;9.10;;;2.97;;
75454;SDS011;64035;48.358;2.122;2023-03-01T04:06:36;8.38;;;2.63;;
75454;SDS011;64035;48.358;2.122;2023-03-01T04:07:39;8.70;;;2.53;;
75454;SDS011;64035;48.358;2.122;2023-03-01T04:08:43;8.43;;;2.83;;
75454;SDS011;64035;48.358;2.122;2023-03-01T04:09:46;7.07;;;2.42;;
75454;SDS011;64035;48.358;2.122;2023-03-01T04:10:50;7.25;;;2.92;;
75454;SDS011;64035;48.358;2.122;2023-03-01T04:11:58;8.05;;;2.72;;
75454;SDS011;64035;48.358;2.122;2023-03-01T04:13:02;7.38;;;2.78;;
75454;SDS011;64035;48.358;2.122;2023-03-01T04:15:09;9.15;;;2.92;;
75454;SDS011;64035;48.358;2.122;2023-03-01T04:16:16;9.10;;;2.92;;
75454;SDS011;64035;48.358;2.122;2023-03-01T04:18:23;10.52;;;2.50;;
75454;SDS011;64035;48.358;2.122;2023-03-01T04:19:27;9.65;;;2.90;;
75454;SDS011;64035;48.358;2.122;2023-03-01T04:20:31;6.85;;;2.78;;
75454;SDS011;64035;48.358;2.122;2023-03-01T04:21:37;9.75;;;3.10;;
75454;SDS011;64035;48.358;2.122;2023-03-01T04:22:40;8.40;;;2.55;;
75454;SDS011;64035;48.358;2.122;2023-03-01T04:23:43;8.82;;;2.50;;
75454;SDS011;64035;48.358;2.122;2023-03-01T04:24:46;9.07;;;2.72;;
75454;SDS011;64035;48.358;2.122;2023-03-01T04:25:50;8.98;;;3.05;;
75454;SDS011;64035;48.358;2.122;2023-03-01T04:26:57;8.65;;;2.60;;
75454;SDS011;64035;48.358;2.122;2023-03-01T04:28:00;7.40;;;2.85;;
75454;SDS011;64035;48.358;2.122;2023-03-01T04:29:03;9.43;;;2.80;;
75454;SDS011;64035;48.358;2.122;2023-03-01T04:30:07;10.40;;;2.78;;
75454;SDS011;64035;48.358;2.122;2023-03-01T04:31:12;6.88;;;2.60;;
75454;SDS011;64035;48.358;2.122;2023-03-01T04:32:19;9.07;;;3.20;;
75454;SDS011;64035;48.358;2.122;2023-03-01T04:33:22;9.57;;;2.65;;
75454;SDS011;64035;48.358;2.122;2023-03-01T04:34:26;8.15;;;2.75;;
75454;SDS011;64035;48.358;2.122;2023-03-01T04:35:30;8.50;;;3.15;;
75454;SDS011;64035;48.358;2.122;2023-03-01T04:36:34;7.10;;;2.63;;
75454;SDS011;64035;48.358;2.122;2023-03-01T04:37:38;6.97;;;2.67;;
75454;SDS011;64035;48.358;2.122;2023-03-01T04:38:41;8.00;;;2.70;;
75454;SDS011;64035;48.358;2.122;2023-03-01T04:39:45;7.60;;;2.63;;
75454;SDS011;64035;48.358;2.122;2023-03-01T04:40:50;6.80;;;2.70;;
75454;SDS011;64035;48.358;2.122;2023-03-01T04:41:52;7.43;;;2.15;;
75454;SDS011;64035;48.358;2.122;2023-03-01T04:42:55;7.82;;;2.88;;
75454;SDS011;64035;48.358;2.122;2023-03-01T04:43:58;8.10;;;2.70;;
75454;SDS011;64035;48.358;2.122;2023-03-01T04:45:02;7.32;;;2.50;;
75454;SDS011;64035;48.358;2.122;2023-03-01T04:46:13;10.98;;;3.28;;
75454;SDS011;64035;48.358;2.122;2023-03-01T04:47:18;9.02;;;3.50;;
75454;SDS011;64035;48.358;2.122;2023-03-01T04:48:21;9.48;;;3.42;;
75454;SDS011;64035;48.358;2.122;2023-03-01T04:49:24;9.68;;;3.58;;
75454;SDS011;64035;48.358;2.122;2023-03-01T04:50:28;6.78;;;2.63;;
75454;SDS011;64035;48.358;2.122;2023-03-01T04:51:31;8.90;;;3.25;;
75454;SDS011;64035;48.358;2.122;2023-03-01T04:52:37;7.80;;;2.80;;
75454;SDS011;64035;48.358;2.122;2023-03-01T04:53:41;8.02;;;2.45;;
75454;SDS011;64035;48.358;2.122;2023-03-01T04:54:45;7.70;;;2.40;;
75454;SDS011;64035;48.358;2.122;2023-03-01T04:55:48;6.65;;;2.30;;
75454;SDS011;64035;48.358;2.122;2023-03-01T04:56:52;8.40;;;2.80;;
75454;SDS011;64035;48.358;2.122;2023-03-01T04:57:55;9.45;;;3.10;;
75454;SDS011;64035;48.358;2.122;2023-03-01T04:58:58;9.38;;;3.00;;
75454;SDS011;64035;48.358;2.122;2023-03-01T05:00:04;8.43;;;2.90;;
75454;SDS011;64035;48.358;2.122;2023-03-01T05:01:23;8.75;;;2.80;;
75454;SDS011;64035;48.358;2.122;2023-03-01T05:02:26;8.32;;;2.75;;
75454;SDS011;64035;48.358;2.122;2023-03-01T05:03:29;10.38;;;3.03;;
75454;SDS011;64035;48.358;2.122;2023-03-01T05:04:32;7.60;;;2.85;;
75454;SDS011;64035;48.358;2.122;2023-03-01T05:05:36;7.68;;;2.58;;
75454;SDS011;64035;48.358;2.122;2023-03-01T05:06:41;8.90;;;2.95;;
75454;SDS011;64035;48.358;2.122;2023-03-01T05:07:44;9.85;;;3.10;;
75454;SDS011;64035;48.358;2.122;2023-03-01T05:08:48;9.75;;;2.83;;
75454;SDS011;64035;48.358;2.122;2023-03-01T05:09:51;7.68;;;2.55;;
75454;SDS011;64035;48.358;2.122;2023-03-01T05:10:54;8.02;;;2.75;;
75454;SDS011;64035;48.358;2.122;2023-03-01T05:11:57;8.13;;;2.55;;
75454;SDS011;64035;48.358;2.122;2023-03-01T05:13:00;7.60;;;2.72;;
75454;SDS011;64035;48.358;2.122;2023-03-01T05:14:03;7.93;;;2.95;;
75454;SDS011;64035;48.358;2.122;2023-03-01T05:15:08;7.30;;;2.78;;
75454;SDS011;64035;48.358;2.122;2023-03-01T05:16:11;8.50;;;2.67;;
75454;SDS011;64035;48.358;2.122;2023-03-01T05:17:14;9.15;;;3.30;;
75454;SDS011;64035;48.358;2.122;2023-03-01T05:18:17;7.38;;;2.58;;
75454;SDS011;64035;48.358;2.122;2023-03-01T05:19:20;8.32;;;3.00;;
75454;SDS011;64035;48.358;2.122;2023-03-01T05:20:28;8.82;;;3.00;;
75454;SDS011;64035;48.358;2.122;2023-03-01T05:21:32;7.30;;;2.70;;
75454;SDS011;64035;48.358;2.122;2023-03-01T05:22:36;12.05;;;3.30;;
75454;SDS011;64035;48.358;2.122;2023-03-01T05:23:39;8.18;;;3.17;;
75454;SDS011;64035;48.358;2.122;2023-03-01T05:24:43;9.85;;;2.85;;
75454;SDS011;64035;48.358;2.122;2023-03-01T05:25:46;8.43;;;2.60;;
75454;SDS011;64035;48.358;2.122;2023-03-01T05:26:49;9.40;;;3.10;;
75454;SDS011;64035;48.358;2.122;2023-03-01T05:27:54;5.25;;;2.22;;
75454;SDS011;64035;48.358;2.122;2023-03-01T05:28:57;8.45;;;3.30;;
75454;SDS011;64035;48.358;2.122;2023-03-01T05:30:01;9.00;;;3.08;;
75454;SDS011;64035;48.358;2.122;2023-03-01T05:31:15;10.25;;;2.95;;
75454;SDS011;64035;48.358;2.122;2023-03-01T05:32:19;7.53;;;2.85;;
75454;SDS011;64035;48.358;2.122;2023-03-01T05:33:22;11.07;;;3.38;;
75454;SDS011;64035;48.358;2.122;2023-03-01T05:34:26;8.95;;;2.97;;
75454;SDS011;64035;48.358;2.122;2023-03-01T05:35:32;8.40;;;3.20;;
75454;SDS011;64035;48.358;2.122;2023-03-01T05:36:35;8.40;;;3.10;;
75454;SDS011;64035;48.358;2.122;2023-03-01T05:37:39;8.60;;;3.13;;
75454;SDS011;64035;48.358;2.122;2023-03-01T05:38:44;9.55;;;3.30;;
75454;SDS011;64035;48.358;2.122;2023-03-01T05:39:47;9.32;;;2.97;;
75454;SDS011;64035;48.358;2.122;2023-03-01T05:40:53;9.32;;;3.25;;
75454;SDS011;64035;48.358;2.122;2023-03-01T05:41:56;8.68;;;3.20;;
75454;SDS011;64035;48.358;2.122;2023-03-01T05:43:01;9.40;;;3.40;;
75454;SDS011;64035;48.358;2.122;2023-03-01T05:44:07;8.25;;;2.97;;
75454;SDS011;64035;48.358;2.122;2023-03-01T05:45:10;9.05;;;3.45;;
75454;SDS011;64035;48.358;2.122;2023-03-01T05:46:15;8.45;;;3.30;;
75454;SDS011;64035;48.358;2.122;2023-03-01T05:47:18;11.60;;;3.30;;
75454;SDS011;64035;48.358;2.122;2023-03-01T05:48:21;9.27;;;3.10;;
75454;SDS011;64035;48.358;2.122;2023-03-01T05:49:23;8.13;;;2.80;;
75454;SDS011;64035;48.358;2.122;2023-03-01T05:50:28;9.60;;;3.30;;
75454;SDS011;64035;48.358;2.122;2023-03-01T05:51:32;8.57;;;3.13;;
75454;SDS011;64035;48.358;2.122;2023-03-01T05:52:37;9.20;;;3.08;;
75454;SDS011;64035;48.358;2.122;2023-03-01T05:53:40;8.60;;;2.75;;
75454;SDS011;64035;48.358;2.122;2023-03-01T05:54:44;7.30;;;2.85;;
75454;SDS011;64035;48.358;2.122;2023-03-01T05:55:48;10.35;;;3.25;;
75454;SDS011;64035;48.358;2.122;2023-03-01T05:56:52;8.60;;;2.80;;
75454;SDS011;64035;48.358;2.122;2023-03-01T05:57:55;11.32;;;3.42;;
75454;SDS011;64035;48.358;2.122;2023-03-01T05:59:02;9.50;;;3.05;;
75454;SDS011;64035;48.358;2.122;2023-03-01T06:00:07;10.82;;;3.17;;
75454;SDS011;64035;48.358;2.122;2023-03-01T06:01:15;10.15;;;3.13;;
75454;SDS011;64035;48.358;2.122;2023-03-01T06:02:18;8.95;;;3.30;;
75454;SDS011;64035;48.358;2.122;2023-03-01T06:03:21;9.23;;;3.42;;
75454;SDS011;64035;48.358;2.122;2023-03-01T06:04:23;8.77;;;2.90;;
75454;SDS011;64035;48.358;2.122;2023-03-01T06:05:26;11.82;;;3.58;;
75454;SDS011;64035;48.358;2.122;2023-03-01T06:06:33;9.82;;;2.90;;
75454;SDS011;64035;48.358;2.122;2023-03-01T06:07:37;9.10;;;3.03;;
75454;SDS011;64035;48.358;2.122;2023-03-01T06:09:44;7.93;;;2.78;;
75454;SDS011;64035;48.358;2.122;2023-03-01T06:10:47;7.80;;;2.90;;
75454;SDS011;64035;48.358;2.122;2023-03-01T06:11:50;7.65;;;2.65;;
75454;SDS011;64035;48.358;2.122;2023-03-01T06:12:54;9.80;;;3.20;;
75454;SDS011;64035;48.358;2.122;2023-03-01T06:15:01;10.50;;;3.05;;
75454;SDS011;64035;48.358;2.122;2023-03-01T06:16:05;7.65;;;2.65;;
75454;SDS011;64035;48.358;2.122;2023-03-01T06:17:09;7.70;;;2.80;;
75454;SDS011;64035;48.358;2.122;2023-03-01T06:18:12;8.77;;;3.13;;
75454;SDS011;64035;48.358;2.122;2023-03-01T06:19:15;9.35;;;3.38;;
75454;SDS011;64035;48.358;2.122;2023-03-01T06:20:18;9.02;;;3.42;;
75454;SDS011;64035;48.358;2.122;2023-03-01T06:21:24;8.57;;;2.85;;
75454;SDS011;64035;48.358;2.122;2023-03-01T06:22:27;9.40;;;3.13;;
75454;SDS011;64035;48.358;2.122;2023-03-01T06:23:30;11.98;;;3.30;;
75454;SDS011;64035;48.358;2.122;2023-03-01T06:24:33;11.25;;;3.40;;
75454;SDS011;64035;48.358;2.122;2023-03-01T06:25:36;10.63;;;2.92;;
75454;SDS011;64035;48.358;2.122;2023-03-01T06:26:39;9.82;;;2.75;;
75454;SDS011;64035;48.358;2.122;2023-03-01T06:27:42;9.57;;;3.00;;
75454;SDS011;64035;48.358;2.122;2023-03-01T06:28:46;8.65;;;3.42;;
75454;SDS011;64035;48.358;2.122;2023-03-01T06:29:49;8.55;;;3.28;;
75454;SDS011;64035;48.358;2.122;2023-03-01T06:30:52;9.45;;;3.03;;
75454;SDS011;64035;48.358;2.122;2023-03-01T06:31:55;10.57;;;3.25;;
75454;SDS011;64035;48.358;2.122;2023-03-01T06:32:58;10.13;;;3.35;;
75454;SDS011;64035;48.358;2.122;2023-03-01T06:34:03;9.02;;;3.10;;
75454;SDS011;64035;48.358;2.122;2023-03-01T06:35:06;9.10;;;3.08;;
75454;SDS011;64035;48.358;2.122;2023-03-01T06:36:10;9.13;;;2.47;;
75454;SDS011;64035;48.358;2.122;2023-03-01T06:37:13;10.10;;;3.20;;
75454;SDS011;64035;48.358;2.122;2023-03-01T06:38:16;10.27;;;3.20;;
75454;SDS011;64035;48.358;2.122;2023-03-01T06:39:21;9.10;;;3.13;;
75454;SDS011;64035;48.358;2.122;2023-03-01T06:40:24;8.68;;;3.30;;
75454;SDS011;64035;48.358;2.122;2023-03-01T06:42:31;10.82;;;3.28;;
75454;SDS011;64035;48.358;2.122;2023-03-01T06:43:34;8.77;;;2.90;;
75454;SDS011;64035;48.358;2.122;2023-03-01T06:44:37;10.57;;;3.28;;
75454;SDS011;64035;48.358;2.122;2023-03-01T06:45:40;10.02;;;3.40;;
75454;SDS011;64035;48.358;2.122;2023-03-01T06:46:44;8.95;;;3.10;;
75454;SDS011;64035;48.358;2.122;2023-03-01T06:47:47;9.57;;;3.55;;
75454;SDS011;64035;48.358;2.122;2023-03-01T06:48:51;11.50;;;3.92;;
75454;SDS011;64035;48.358;2.122;2023-03-01T06:49:54;12.50;;;3.90;;
75454;SDS011;64035;48.358;2.122;2023-03-01T06:50:59;14.43;;;3.00;;
75454;SDS011;64035;48.358;2.122;2023-03-01T06:52:05;8.60;;;3.45;;
75454;SDS011;64035;48.358;2.122;2023-03-01T06:53:08;11.32;;;3.22;;
75454;SDS011;64035;48.358;2.122;2023-03-01T06:54:11;10.25;;;3.22;;